createdAt,value
2023-05-01T00:02:28.065Z,77.24
2023-05-01T00:04:56.039Z,77.45
2023-05-01T00:07:25.543Z,77.33
2023-05-01T00:09:53.338Z,77.48
2023-05-01T00:12:21.353Z,77.33
2023-05-01T00:14:49.230Z,77.41
2023-05-01T00:17:17.105Z,77.57
2023-05-01T00:19:44.958Z,77.65
2023-05-01T00:22:12.752Z,77.63
2023-05-01T00:24:41.921Z,77.71
2023-05-01T00:27:09.763Z,77.80
2023-05-01T00:29:38.207Z,77.80
2023-05-01T00:32:07.231Z,77.70
2023-05-01T00:34:35.236Z,77.68
2023-05-01T00:37:03.074Z,77.61
2023-05-01T00:39:31.004Z,77.58
2023-05-01T00:42:00.313Z,77.60
2023-05-01T00:44:27.999Z,77.59
2023-05-01T00:46:56.500Z,77.44
2023-05-01T00:49:24.447Z,77.20
2023-05-01T00:51:54.225Z,77.42
2023-05-01T00:54:23.158Z,77.58
2023-05-01T00:56:52.150Z,77.55
2023-05-01T00:59:21.483Z,77.45
2023-05-01T01:01:49.129Z,77.45
2023-05-01T01:04:16.960Z,77.39
2023-05-01T01:06:50.390Z,77.11
2023-05-01T01:09:21.983Z,76.83
2023-05-01T01:11:54.645Z,76.82
2023-05-01T01:14:28.607Z,76.56
2023-05-01T01:16:58.982Z,76.53
2023-05-01T01:19:37.201Z,76.58
2023-05-01T01:22:08.964Z,76.64
2023-05-01T01:24:49.519Z,76.59
2023-05-01T01:27:34.796Z,76.53
2023-05-01T01:30:17.801Z,76.30
2023-05-01T01:33:03.460Z,76.01
2023-05-01T01:35:33.133Z,75.68
2023-05-01T01:38:02.465Z,75.56
2023-05-01T01:40:33.063Z,75.54
2023-05-01T01:43:03.773Z,75.17
2023-05-01T01:45:32.499Z,74.87
2023-05-01T01:48:02.202Z,74.90
2023-05-01T01:50:32.302Z,74.97
2023-05-01T01:53:01.105Z,74.95
2023-05-01T01:55:30.876Z,74.90
2023-05-01T01:57:59.850Z,75.18
2023-05-01T02:00:28.812Z,75.10
2023-05-01T02:02:57.170Z,75.08
2023-05-01T02:05:26.052Z,75.27
2023-05-01T02:07:55.893Z,75.60
2023-05-01T02:10:24.024Z,75.52
2023-05-01T02:12:52.618Z,75.23
2023-05-01T02:15:21.153Z,75.38
2023-05-01T02:17:50.190Z,75.46
2023-05-01T02:20:18.210Z,75.76
2023-05-01T02:22:47.428Z,75.85
2023-05-01T02:25:17.489Z,76.27
2023-05-01T02:27:46.660Z,76.42
2023-05-01T02:30:14.483Z,77.22
2023-05-01T02:32:42.581Z,77.69
2023-05-01T02:35:10.506Z,77.86
2023-05-01T02:37:39.119Z,77.99
2023-05-01T02:40:07.897Z,78.09
2023-05-01T02:42:39.232Z,78.40
2023-05-01T02:45:08.751Z,78.76
2023-05-01T02:47:39.191Z,79.26
2023-05-01T02:50:07.841Z,79.03
2023-05-01T02:52:36.158Z,86.11
2023-05-01T02:55:23.448Z,84.36
2023-05-01T02:57:52.941Z,82.99
2023-05-01T03:00:20.791Z,81.18
2023-05-01T03:02:48.646Z,79.52
2023-05-01T03:05:17.180Z,78.31
2023-05-01T03:07:44.836Z,76.48
2023-05-01T03:10:12.705Z,74.90
2023-05-01T03:12:40.954Z,75.73
2023-05-01T03:15:11.312Z,77.24
2023-05-01T03:17:39.001Z,78.05
2023-05-01T03:20:09.492Z,76.88
2023-05-01T03:22:37.193Z,75.10
2023-05-01T03:25:05.310Z,75.79
2023-05-01T03:27:33.472Z,76.27
2023-05-01T03:30:01.110Z,76.60
2023-05-01T03:32:33.479Z,76.91
2023-05-01T03:35:01.834Z,75.89
2023-05-01T03:37:29.836Z,76.28
2023-05-01T03:39:57.789Z,76.25
2023-05-01T03:42:44.032Z,75.14
2023-05-01T03:45:19.741Z,75.54
2023-05-01T03:47:48.791Z,75.55
2023-05-01T03:50:17.288Z,75.57
2023-05-01T03:52:47.257Z,74.93
2023-05-01T03:55:14.991Z,74.55
2023-05-01T03:57:43.499Z,74.88
2023-05-01T04:00:12.785Z,73.84
2023-05-01T04:02:43.218Z,75.38
2023-05-01T04:05:16.024Z,76.81
2023-05-01T04:07:48.865Z,77.65
2023-05-01T04:10:17.443Z,78.34
2023-05-01T04:12:53.117Z,79.20
2023-05-01T04:15:22.636Z,78.72
2023-05-01T04:17:51.034Z,79.05
2023-05-01T04:20:20.862Z,79.87
2023-05-01T04:22:49.193Z,80.30
2023-05-01T04:25:18.220Z,80.76
2023-05-01T04:27:48.426Z,83.71
2023-05-01T04:30:16.692Z,82.47
2023-05-01T04:32:44.970Z,79.04
2023-05-01T04:35:12.778Z,80.57
2023-05-01T04:37:45.823Z,79.73
2023-05-01T04:40:13.809Z,79.86
2023-05-01T04:42:42.675Z,79.58
2023-05-01T04:45:16.150Z,79.81
2023-05-01T04:47:44.000Z,78.30
2023-05-01T04:50:11.885Z,78.74
2023-05-01T04:52:39.602Z,79.26
2023-05-01T04:55:10.288Z,79.64
2023-05-01T04:57:44.937Z,80.21
2023-05-01T05:00:13.470Z,81.01
2023-05-01T05:02:50.893Z,80.89
2023-05-01T05:05:18.777Z,80.67
2023-05-01T05:07:47.079Z,80.79
2023-05-01T05:10:45.376Z,81.01
2023-05-01T05:13:33.090Z,81.22
2023-05-01T05:16:10.707Z,81.48
2023-05-01T05:18:38.773Z,81.35
2023-05-01T05:21:07.198Z,81.14
2023-05-01T05:23:34.966Z,81.29
2023-05-01T05:26:04.248Z,81.34
2023-05-01T05:28:32.203Z,81.28
2023-05-01T05:31:00.115Z,81.40
2023-05-01T05:33:29.205Z,81.15
2023-05-01T05:35:59.181Z,81.41
2023-05-01T05:38:31.262Z,81.42
2023-05-01T05:41:00.882Z,82.98
2023-05-01T05:43:30.945Z,81.74
2023-05-01T05:45:59.201Z,81.40
2023-05-01T05:48:31.621Z,80.05
2023-05-01T05:50:59.567Z,78.22
2023-05-01T05:53:27.578Z,78.22
2023-05-01T05:55:55.491Z,78.19
2023-05-01T05:58:24.600Z,77.40
2023-05-01T06:00:55.693Z,76.52
2023-05-01T06:03:23.712Z,76.36
2023-05-01T06:05:54.282Z,77.42
2023-05-01T06:09:03.272Z,75.58
2023-05-01T06:11:31.273Z,75.91
2023-05-01T06:13:59.889Z,76.00
2023-05-01T06:16:28.330Z,75.80
2023-05-01T06:18:56.349Z,75.84
2023-05-01T06:21:24.344Z,74.74
2023-05-01T06:23:52.338Z,74.34
2023-05-01T06:26:35.561Z,74.61
2023-05-01T06:29:03.238Z,73.61
2023-05-01T06:31:32.538Z,72.18
2023-05-01T06:34:00.523Z,71.86
2023-05-01T06:36:33.273Z,71.80
2023-05-01T06:39:01.141Z,72.03
2023-05-01T06:41:29.091Z,71.32
2023-05-01T06:43:58.539Z,70.42
2023-05-01T06:46:26.438Z,69.15
2023-05-01T06:48:54.347Z,67.64
2023-05-01T06:51:22.185Z,67.64
2023-05-01T06:53:50.030Z,67.73
2023-05-01T06:56:17.896Z,66.38
2023-05-01T06:58:45.687Z,66.68
2023-05-01T07:01:14.965Z,64.43
2023-05-01T07:03:42.656Z,64.11
2023-05-01T07:06:10.435Z,63.19
2023-05-01T07:08:38.082Z,62.23
2023-05-01T07:11:05.856Z,61.19
2023-05-01T07:13:33.468Z,60.65
2023-05-01T07:16:01.666Z,59.14
2023-05-01T07:18:30.706Z,59.15
2023-05-01T07:20:58.346Z,59.53
2023-05-01T07:23:25.943Z,58.60
2023-05-01T07:25:53.892Z,59.52
2023-05-01T07:28:22.252Z,58.31
2023-05-01T07:30:49.945Z,59.06
2023-05-01T07:33:18.540Z,59.25
2023-05-01T07:35:47.694Z,58.64
2023-05-01T07:38:16.828Z,58.68
2023-05-01T07:40:44.538Z,57.85
2023-05-01T07:43:12.153Z,56.15
2023-05-01T07:45:40.194Z,54.89
2023-05-01T07:48:08.271Z,53.53
2023-05-01T07:50:36.314Z,51.45
2023-05-01T07:53:05.283Z,51.00
2023-05-01T07:55:33.372Z,50.71
2023-05-01T07:58:01.001Z,49.29
2023-05-01T08:00:31.267Z,47.85
2023-05-01T08:03:01.327Z,49.04
2023-05-01T08:05:29.027Z,47.18
2023-05-01T08:07:56.657Z,48.12
2023-05-01T08:10:26.056Z,48.95
2023-05-01T08:12:53.932Z,50.12
2023-05-01T08:15:22.027Z,49.56
2023-05-01T08:17:51.159Z,50.98
2023-05-01T08:20:18.876Z,51.29
2023-05-01T08:22:46.527Z,52.93
2023-05-01T08:25:14.146Z,54.64
2023-05-01T08:27:43.165Z,54.88
2023-05-01T08:30:11.108Z,55.87
2023-05-01T08:32:38.830Z,56.50
2023-05-01T08:35:06.774Z,56.90
2023-05-01T08:37:35.166Z,57.75
2023-05-01T08:40:08.295Z,57.79
2023-05-01T08:42:36.172Z,58.62
2023-05-01T08:45:08.362Z,58.96
2023-05-01T08:47:37.859Z,59.32
2023-05-01T08:50:05.937Z,58.90
2023-05-01T08:52:34.521Z,59.48
2023-05-01T08:55:02.875Z,59.53
2023-05-01T08:57:31.497Z,59.91
2023-05-01T08:59:59.995Z,58.42
2023-05-01T09:02:29.540Z,57.72
2023-05-01T09:04:59.330Z,57.39
2023-05-01T09:07:27.286Z,58.54
2023-05-01T09:09:55.194Z,58.52
2023-05-01T09:12:24.298Z,59.20
2023-05-01T09:14:52.706Z,59.87
2023-05-01T09:17:21.122Z,59.70
2023-05-01T09:19:50.870Z,60.53
2023-05-01T09:22:19.076Z,60.86
2023-05-01T09:24:46.979Z,60.93
2023-05-01T09:27:15.613Z,60.19
2023-05-01T09:29:44.115Z,59.79
2023-05-01T09:32:16.355Z,59.59
2023-05-01T09:34:44.699Z,60.04
2023-05-01T09:37:15.840Z,59.62
2023-05-01T09:39:43.506Z,59.16
2023-05-01T09:42:11.394Z,59.82
2023-05-01T09:44:43.103Z,58.99
2023-05-01T09:47:10.795Z,59.01
2023-05-01T09:49:49.314Z,59.59
2023-05-01T09:52:18.386Z,58.80
2023-05-01T09:54:46.462Z,58.12
2023-05-01T09:57:14.113Z,57.96
2023-05-01T09:59:41.767Z,56.73
2023-05-01T10:02:28.542Z,57.08
2023-05-01T10:04:59.037Z,56.64
2023-05-01T10:07:28.017Z,56.26
2023-05-01T10:09:56.978Z,57.34
2023-05-01T10:12:26.276Z,56.96
2023-05-01T10:14:54.779Z,57.07
2023-05-01T10:17:22.653Z,55.87
2023-05-01T10:19:51.446Z,55.64
2023-05-01T10:22:19.180Z,53.76
2023-05-01T10:24:48.170Z,52.82
2023-05-01T10:27:17.102Z,52.38
2023-05-01T10:29:45.124Z,51.30
2023-05-01T10:32:12.971Z,50.63
2023-05-01T10:34:43.311Z,50.07
2023-05-01T10:37:13.866Z,48.87
2023-05-01T10:39:41.578Z,48.24
2023-05-01T10:42:14.311Z,48.59
2023-05-01T10:44:42.722Z,47.54
2023-05-01T10:47:30.851Z,48.07
2023-05-01T10:50:05.968Z,48.56
2023-05-01T10:52:57.040Z,49.00
2023-05-01T10:55:34.236Z,49.84
2023-05-01T10:58:03.783Z,51.65
2023-05-01T11:00:32.382Z,51.75
2023-05-01T11:03:18.696Z,51.69
2023-05-01T11:06:05.316Z,52.42
2023-05-01T11:08:33.437Z,50.45
2023-05-01T11:11:27.050Z,49.80
2023-05-01T11:14:02.556Z,49.89
2023-05-01T11:16:42.023Z,49.24
2023-05-01T11:19:10.742Z,46.77
2023-05-01T11:21:39.005Z,45.08
2023-05-01T11:24:07.996Z,46.85
2023-05-01T11:26:38.685Z,47.10
2023-05-01T11:29:08.098Z,47.20
2023-05-01T11:31:35.819Z,47.31
2023-05-01T11:34:03.880Z,46.77
2023-05-01T11:36:47.516Z,47.36
2023-05-01T11:39:16.195Z,47.26
2023-05-01T11:41:43.989Z,49.55
2023-05-01T11:44:14.098Z,49.84
2023-05-01T11:46:41.730Z,49.57
2023-05-01T11:49:09.575Z,49.34
2023-05-01T11:51:37.185Z,49.26
2023-05-01T11:54:05.475Z,51.04
2023-05-01T11:56:33.660Z,51.16
2023-05-01T11:59:09.926Z,51.27
2023-05-01T12:01:39.393Z,49.90
2023-05-01T12:04:08.301Z,50.78
2023-05-01T12:06:43.793Z,52.08
2023-05-01T12:09:11.966Z,52.79
2023-05-01T12:11:40.612Z,54.22
2023-05-01T12:14:08.415Z,53.98
2023-05-01T12:16:36.579Z,54.86
2023-05-01T12:19:05.727Z,54.86
2023-05-01T12:21:33.736Z,54.76
2023-05-01T12:24:10.174Z,53.47
2023-05-01T12:26:38.154Z,51.13
2023-05-01T12:29:06.713Z,50.84
2023-05-01T12:31:34.509Z,50.43
2023-05-01T12:34:02.752Z,51.47
2023-05-01T12:36:32.995Z,51.60
2023-05-01T12:39:01.736Z,50.85
2023-05-01T12:41:39.750Z,49.52
2023-05-01T12:44:23.624Z,50.72
2023-05-01T12:46:55.145Z,53.68
2023-05-01T12:49:23.904Z,52.32
2023-05-01T12:51:53.460Z,52.05
2023-05-01T12:54:21.558Z,53.26
2023-05-01T12:56:49.298Z,53.65
2023-05-01T12:59:23.944Z,51.86
2023-05-01T13:01:58.317Z,53.32
2023-05-01T13:04:26.432Z,54.89
2023-05-01T13:06:56.539Z,55.99
2023-05-01T13:09:24.262Z,55.02
2023-05-01T13:11:58.638Z,56.25
2023-05-01T13:14:26.538Z,55.22
2023-05-01T13:16:55.354Z,56.24
2023-05-01T13:19:28.360Z,57.46
2023-05-01T13:21:58.583Z,56.92
2023-05-01T13:24:36.633Z,57.20
2023-05-01T13:27:06.259Z,57.74
2023-05-01T13:29:34.008Z,58.88
2023-05-01T13:32:02.202Z,58.46
2023-05-01T13:34:31.114Z,58.65
2023-05-01T13:37:00.644Z,57.67
2023-05-01T13:39:28.749Z,58.05
2023-05-01T13:41:56.494Z,57.14
2023-05-01T13:44:24.145Z,56.93
2023-05-01T13:46:52.080Z,56.20
2023-05-01T13:49:22.674Z,56.32
2023-05-01T13:51:50.937Z,56.20
2023-05-01T13:54:20.139Z,53.78
2023-05-01T13:56:47.818Z,54.99
2023-05-01T13:59:16.052Z,53.22
2023-05-01T14:01:46.457Z,53.39
2023-05-01T14:04:16.926Z,53.29
2023-05-01T14:06:45.714Z,52.50
2023-05-01T14:09:13.830Z,53.09
2023-05-01T14:11:44.489Z,53.14
2023-05-01T14:14:12.768Z,53.91
2023-05-01T14:16:41.689Z,52.97
2023-05-01T14:19:09.574Z,53.72
2023-05-01T14:21:41.060Z,53.52
2023-05-01T14:24:08.908Z,54.76
2023-05-01T14:26:37.920Z,54.33
2023-05-01T14:29:07.502Z,54.88
2023-05-01T14:31:35.191Z,54.60
2023-05-01T14:34:03.794Z,53.47
2023-05-01T14:36:32.587Z,54.10
2023-05-01T14:39:00.652Z,55.63
2023-05-01T14:41:29.489Z,54.89
2023-05-01T14:43:57.363Z,55.25
2023-05-01T14:46:30.794Z,56.32
2023-05-01T14:48:58.909Z,56.86
2023-05-01T14:51:27.288Z,55.85
2023-05-01T14:53:55.218Z,55.15
2023-05-01T14:56:22.912Z,56.81
2023-05-01T14:58:50.610Z,55.45
2023-05-01T15:01:18.808Z,57.37
2023-05-01T15:03:47.913Z,58.75
2023-05-01T15:06:15.785Z,61.64
2023-05-01T15:08:43.954Z,63.04
2023-05-01T15:11:11.645Z,63.39
2023-05-01T15:13:39.997Z,64.19
2023-05-01T15:16:08.243Z,63.73
2023-05-01T15:18:36.766Z,63.99
2023-05-01T15:21:06.019Z,64.62
2023-05-01T15:23:33.737Z,65.58
2023-05-01T15:26:01.892Z,67.46
2023-05-01T15:28:30.203Z,67.61
2023-05-01T15:30:57.901Z,69.57
2023-05-01T15:33:25.937Z,71.35
2023-05-01T15:35:53.967Z,72.95
2023-05-01T15:38:22.954Z,74.13
2023-05-01T15:40:51.168Z,75.05
2023-05-01T15:43:18.942Z,75.78
2023-05-01T15:45:46.741Z,76.70
2023-05-01T15:48:14.616Z,77.87
2023-05-01T15:50:42.249Z,77.98
2023-05-01T15:53:10.051Z,77.91
2023-05-01T15:55:39.045Z,77.77
2023-05-01T15:58:06.762Z,78.16
2023-05-01T16:00:35.977Z,79.24
2023-05-01T16:03:04.531Z,79.12
2023-05-01T16:05:32.517Z,78.12
2023-05-01T16:08:00.897Z,79.91
2023-05-01T16:10:28.667Z,81.17
2023-05-01T16:12:58.697Z,81.56
2023-05-01T16:15:26.381Z,82.01
2023-05-01T16:17:54.911Z,81.83
2023-05-01T16:20:24.512Z,82.70
2023-05-01T16:22:52.348Z,82.55
2023-05-01T16:25:20.057Z,83.26
2023-05-01T16:27:47.697Z,83.16
2023-05-01T16:30:16.875Z,82.03
2023-05-01T16:32:46.179Z,81.98
2023-05-01T16:35:17.401Z,80.34
2023-05-01T16:37:45.198Z,81.35
2023-05-01T16:40:16.476Z,80.90
2023-05-01T16:42:44.260Z,80.88
2023-05-01T16:45:12.198Z,80.33
2023-05-01T16:47:41.262Z,80.29
2023-05-01T16:50:09.904Z,80.67
2023-05-01T16:52:39.064Z,79.44
2023-05-01T16:55:07.535Z,80.41
2023-05-01T16:57:35.300Z,80.63
2023-05-01T17:00:04.577Z,82.89
2023-05-01T17:02:32.462Z,82.23
2023-05-01T17:05:01.498Z,81.75
2023-05-01T17:07:29.275Z,81.95
2023-05-01T17:09:57.057Z,81.29
2023-05-01T17:12:24.872Z,81.20
2023-05-01T17:14:53.608Z,82.29
2023-05-01T17:17:22.339Z,82.10
2023-05-01T17:19:50.152Z,82.12
2023-05-01T17:22:19.194Z,82.55
2023-05-01T17:24:47.716Z,82.03
2023-05-01T17:27:15.566Z,82.90
2023-05-01T17:29:43.842Z,82.73
2023-05-01T17:32:12.315Z,83.28
2023-05-01T17:34:40.987Z,83.97
2023-05-01T17:37:09.046Z,84.06
2023-05-01T17:39:38.081Z,84.29
2023-05-01T17:42:05.961Z,84.35
2023-05-01T17:44:33.985Z,84.35
2023-05-01T17:47:01.835Z,84.49
2023-05-01T17:49:29.499Z,83.81
2023-05-01T17:51:57.177Z,82.88
2023-05-01T17:54:24.952Z,82.91
2023-05-01T17:56:53.895Z,82.57
2023-05-01T17:59:21.816Z,82.65
2023-05-01T18:01:49.549Z,82.79
2023-05-01T18:04:17.577Z,83.11
2023-05-01T18:06:45.353Z,83.76
2023-05-01T18:09:12.987Z,84.07
2023-05-01T18:11:40.988Z,84.68
2023-05-01T18:14:10.030Z,84.98
2023-05-01T18:16:37.773Z,85.06
2023-05-01T18:19:05.579Z,85.10
2023-05-01T18:21:33.779Z,85.22
2023-05-01T18:24:02.385Z,85.77
2023-05-01T18:26:30.047Z,85.47
2023-05-01T18:28:57.768Z,85.73
2023-05-01T18:31:26.855Z,85.88
2023-05-01T18:33:55.066Z,86.14
2023-05-01T18:36:22.723Z,86.16
2023-05-01T18:38:50.413Z,86.59
2023-05-01T18:41:19.484Z,87.00
2023-05-01T18:43:47.097Z,86.70
2023-05-01T18:46:15.011Z,86.63
2023-05-01T18:48:44.075Z,85.67
2023-05-01T18:51:12.528Z,84.72
2023-05-01T18:53:40.283Z,85.08
2023-05-01T18:56:09.496Z,85.28
2023-05-01T18:58:37.156Z,85.04
2023-05-01T19:01:04.787Z,85.30
2023-05-01T19:03:32.438Z,85.55
2023-05-01T19:06:01.550Z,85.79
2023-05-01T19:08:29.216Z,86.04
2023-05-01T19:10:56.887Z,85.78
2023-05-01T19:13:24.539Z,86.60
2023-05-01T19:15:53.340Z,86.72
2023-05-01T19:18:21.082Z,87.28
2023-05-01T19:20:48.748Z,87.40
2023-05-01T19:23:17.781Z,87.32
2023-05-01T19:25:45.520Z,86.96
2023-05-01T19:28:13.151Z,86.32
2023-05-01T19:30:41.254Z,86.23
2023-05-01T19:33:08.977Z,86.56
2023-05-01T19:35:36.949Z,86.69
2023-05-01T19:38:04.623Z,86.70
2023-05-01T19:40:33.671Z,87.16
2023-05-01T19:43:01.399Z,87.08
2023-05-01T19:45:29.081Z,87.05
2023-05-01T19:47:56.753Z,87.52
2023-05-01T19:50:24.430Z,87.38
2023-05-01T19:52:52.201Z,87.28
2023-05-01T19:55:19.899Z,87.51
2023-05-01T19:57:48.933Z,87.52
2023-05-01T20:00:17.046Z,87.76
2023-05-01T20:02:44.794Z,88.06
2023-05-01T20:05:13.088Z,88.55
2023-05-01T20:07:41.239Z,88.95
2023-05-01T20:10:09.692Z,89.70
2023-05-01T20:12:38.295Z,89.95
2023-05-01T20:15:08.529Z,90.24
2023-05-01T20:17:36.261Z,90.43
2023-05-01T20:20:04.194Z,91.01
2023-05-01T20:22:31.862Z,91.02
2023-05-01T20:24:59.552Z,90.69
2023-05-01T20:27:27.164Z,90.94
2023-05-01T20:29:54.858Z,90.72
2023-05-01T20:32:23.939Z,90.48
2023-05-01T20:34:52.516Z,91.08
2023-05-01T20:37:20.212Z,91.49
2023-05-01T20:39:48.570Z,91.82
2023-05-01T20:42:16.270Z,91.87
2023-05-01T20:44:44.477Z,92.00
2023-05-01T20:47:12.136Z,92.28
2023-05-01T20:49:41.217Z,92.11
2023-05-01T20:52:09.192Z,92.05
2023-05-01T20:54:37.109Z,91.90
2023-05-01T20:57:05.257Z,91.70
2023-05-01T20:59:33.510Z,92.12
2023-05-01T21:02:04.116Z,92.18
2023-05-01T21:04:32.033Z,92.07
2023-05-01T21:07:00.990Z,91.61
2023-05-01T21:09:28.666Z,91.12
2023-05-01T21:11:56.326Z,90.73
2023-05-01T21:14:23.931Z,90.19
2023-05-01T21:16:51.574Z,89.58
2023-05-01T21:19:19.596Z,89.17
2023-05-01T21:21:47.234Z,89.17
2023-05-01T21:24:21.428Z,89.07
2023-05-01T21:26:49.163Z,88.43
2023-05-01T21:29:16.798Z,88.80
2023-05-01T21:31:44.510Z,88.90
2023-05-01T21:34:12.290Z,89.28
2023-05-01T21:36:43.117Z,88.72
2023-05-01T21:39:10.899Z,89.06
2023-05-01T21:41:41.018Z,89.06
2023-05-01T21:44:10.269Z,88.62
2023-05-01T21:46:38.149Z,88.58
2023-05-01T21:49:05.880Z,89.19
2023-05-01T21:51:33.709Z,89.30
2023-05-01T21:54:02.177Z,88.95
2023-05-01T21:56:29.785Z,88.82
2023-05-01T21:59:01.796Z,88.63
2023-05-01T22:01:29.739Z,88.54
2023-05-01T22:03:57.611Z,88.56
2023-05-01T22:06:25.624Z,88.53
2023-05-01T22:08:53.340Z,88.75
2023-05-01T22:11:23.053Z,88.98
2023-05-01T22:13:50.732Z,88.90
2023-05-01T22:16:19.882Z,89.08
2023-05-01T22:18:49.786Z,89.25
2023-05-01T22:21:17.662Z,89.34
2023-05-01T22:23:45.508Z,89.39
2023-05-01T22:26:13.292Z,89.42
2023-05-01T22:28:41.001Z,89.44
2023-05-01T22:31:08.618Z,89.37
2023-05-01T22:33:37.816Z,89.79
2023-05-01T22:36:07.432Z,89.52
2023-05-01T22:38:35.375Z,89.56
2023-05-01T22:41:03.026Z,89.13
2023-05-01T22:43:30.719Z,89.04
2023-05-01T22:45:58.382Z,89.15
2023-05-01T22:48:26.051Z,89.08
2023-05-01T22:50:55.042Z,88.72
2023-05-01T22:53:22.677Z,89.02
2023-05-01T22:55:50.307Z,88.97
2023-05-01T22:58:17.942Z,89.31
2023-05-01T23:00:45.584Z,89.38
2023-05-01T23:03:13.296Z,90.10
2023-05-01T23:05:40.948Z,90.24
2023-05-01T23:08:09.933Z,90.51
2023-05-01T23:10:40.960Z,90.48
2023-05-01T23:13:09.456Z,90.27
2023-05-01T23:15:37.200Z,90.33
2023-05-01T23:18:04.958Z,90.18
2023-05-01T23:20:32.625Z,90.06
2023-05-01T23:23:05.162Z,89.75
2023-05-01T23:25:34.191Z,89.69
2023-05-01T23:28:03.113Z,89.79
2023-05-01T23:30:30.710Z,89.93
2023-05-01T23:32:59.007Z,90.33
2023-05-01T23:35:26.675Z,90.31
2023-05-01T23:37:54.660Z,90.74
2023-05-01T23:40:22.312Z,90.63
2023-05-01T23:42:51.422Z,90.68
2023-05-01T23:45:19.299Z,90.88
2023-05-01T23:47:46.980Z,91.16
2023-05-01T23:50:14.702Z,91.29
2023-05-01T23:52:42.466Z,91.53
2023-05-01T23:55:10.691Z,91.60
